createdAt,value
2022-09-02T00:02:12.585Z,25.70
2022-09-02T00:04:40.802Z,25.60
2022-09-02T00:07:08.937Z,25.70
2022-09-02T00:09:38.999Z,26.30
2022-09-02T00:12:07.902Z,26.00
2022-09-02T00:14:38.468Z,26.60
2022-09-02T00:17:07.026Z,26.30
2022-09-02T00:19:36.738Z,26.00
2022-09-02T00:22:05.110Z,26.00
2022-09-02T00:24:33.455Z,26.30
2022-09-02T00:27:01.618Z,26.30
2022-09-02T00:29:30.268Z,26.40
2022-09-02T00:31:59.387Z,26.00
2022-09-02T00:34:27.767Z,26.00
2022-09-02T00:36:57.240Z,26.30
2022-09-02T00:39:26.174Z,26.10
2022-09-02T00:41:54.498Z,26.30
2022-09-02T00:44:22.739Z,26.40
2022-09-02T00:46:50.907Z,25.80
2022-09-02T00:49:25.150Z,25.70
2022-09-02T00:51:58.769Z,25.90
2022-09-02T00:54:29.690Z,26.50
2022-09-02T00:56:58.308Z,25.70
2022-09-02T00:59:31.505Z,25.30
2022-09-02T01:02:00.129Z,26.50
2022-09-02T01:04:29.317Z,25.50
2022-09-02T01:06:58.978Z,25.50
2022-09-02T01:09:27.238Z,25.60
2022-09-02T01:11:55.612Z,25.70
2022-09-02T01:14:24.152Z,25.70
2022-09-02T01:17:00.729Z,25.50
2022-09-02T01:19:36.273Z,25.70
2022-09-02T01:22:16.001Z,25.80
2022-09-02T01:24:43.915Z,25.60
2022-09-02T01:27:16.775Z,25.30
2022-09-02T01:29:45.000Z,25.60
2022-09-02T01:32:13.308Z,25.20
2022-09-02T01:34:41.686Z,26.10
2022-09-02T01:37:11.281Z,25.60
2022-09-02T01:39:39.407Z,26.00
2022-09-02T01:42:07.775Z,25.50
2022-09-02T01:44:37.710Z,25.50
2022-09-02T01:47:06.436Z,25.30
2022-09-02T01:49:35.964Z,25.60
2022-09-02T01:52:04.891Z,26.10
2022-09-02T01:54:34.729Z,25.50
2022-09-02T01:57:03.622Z,25.50
2022-09-02T01:59:32.001Z,25.70
2022-09-02T02:02:00.374Z,25.50
2022-09-02T02:04:28.691Z,25.40
2022-09-02T02:06:57.297Z,26.00
2022-09-02T02:09:25.396Z,25.30
2022-09-02T02:11:55.216Z,25.00
2022-09-02T02:14:23.343Z,25.40
2022-09-02T02:16:52.203Z,25.40
2022-09-02T02:19:20.350Z,25.50
2022-09-02T02:21:48.472Z,25.40
2022-09-02T02:24:16.607Z,25.30
2022-09-02T02:26:45.347Z,24.90
2022-09-02T02:29:15.347Z,24.70
2022-09-02T02:31:44.088Z,25.00
2022-09-02T02:34:12.258Z,25.00
2022-09-02T02:36:40.960Z,25.00
2022-09-02T02:39:11.377Z,25.30
2022-09-02T02:41:41.228Z,25.20
2022-09-02T02:44:14.882Z,24.80
2022-09-02T02:46:43.080Z,24.50
2022-09-02T02:49:11.598Z,24.40
2022-09-02T02:51:39.971Z,25.10
2022-09-02T02:54:39.508Z,24.40
2022-09-02T02:57:08.368Z,24.70
2022-09-02T02:59:38.495Z,24.70
2022-09-02T03:02:07.754Z,24.60
2022-09-02T03:04:36.229Z,24.40
2022-09-02T03:07:07.317Z,24.70
2022-09-02T03:09:35.636Z,24.40
2022-09-02T03:12:04.357Z,24.60
2022-09-02T03:14:33.000Z,25.00
2022-09-02T03:17:02.596Z,24.40
2022-09-02T03:19:30.727Z,24.20
2022-09-02T03:21:59.258Z,25.10
2022-09-02T03:24:27.410Z,24.30
2022-09-02T03:26:55.656Z,24.40
2022-09-02T03:29:23.856Z,24.40
2022-09-02T03:31:52.233Z,24.40
2022-09-02T03:34:23.614Z,24.10
2022-09-02T03:36:51.952Z,24.10
2022-09-02T03:39:21.178Z,24.70
2022-09-02T03:41:50.365Z,24.10
2022-09-02T03:44:18.591Z,24.30
2022-09-02T03:46:47.049Z,24.30
2022-09-02T03:49:17.099Z,24.30
2022-09-02T03:51:46.731Z,24.70
2022-09-02T03:54:14.911Z,24.60
2022-09-02T03:56:43.141Z,23.80
2022-09-02T03:59:13.085Z,24.00
2022-09-02T04:01:41.482Z,24.10
2022-09-02T04:04:10.070Z,24.10
2022-09-02T04:06:38.247Z,24.40
2022-09-02T04:09:07.984Z,23.70
2022-09-02T04:11:37.241Z,23.90
2022-09-02T04:14:05.418Z,23.90
2022-09-02T04:16:36.201Z,23.90
2022-09-02T04:19:05.467Z,24.00
2022-09-02T04:21:35.139Z,24.10
2022-09-02T04:24:03.389Z,23.90
2022-09-02T04:26:33.181Z,23.80
2022-09-02T04:29:01.865Z,23.90
2022-09-02T04:31:32.142Z,23.40
2022-09-02T04:34:00.737Z,23.90
2022-09-02T04:36:30.841Z,23.70
2022-09-02T04:39:00.345Z,24.20
2022-09-02T04:41:31.364Z,23.80
2022-09-02T04:44:01.240Z,23.80
2022-09-02T04:46:34.539Z,23.80
2022-09-02T04:51:32.730Z,23.90
2022-09-02T04:56:31.059Z,23.60
2022-09-02T04:59:00.765Z,23.60
2022-09-02T05:01:32.485Z,23.70
2022-09-02T05:04:01.800Z,23.70
2022-09-02T05:06:30.501Z,23.30
2022-09-02T05:09:00.571Z,23.40
2022-09-02T05:11:30.203Z,24.10
2022-09-02T05:14:02.486Z,23.60
2022-09-02T05:16:35.657Z,23.40
2022-09-02T05:19:05.779Z,23.70
2022-09-02T05:21:34.231Z,23.30
2022-09-02T05:24:02.707Z,23.30
2022-09-02T05:26:33.687Z,23.90
2022-09-02T05:31:31.552Z,23.90
2022-09-02T05:36:28.263Z,23.60
2022-09-02T05:38:56.507Z,23.30
2022-09-02T05:41:25.354Z,23.40
2022-09-02T05:43:55.732Z,23.30
2022-09-02T05:46:27.263Z,24.00
2022-09-02T05:49:09.083Z,23.50
2022-09-02T05:51:43.314Z,23.50
2022-09-02T05:54:13.460Z,23.30
2022-09-02T05:56:45.020Z,24.10
2022-09-02T05:59:14.001Z,23.40
2022-09-02T06:01:44.150Z,23.70
2022-09-02T06:04:12.366Z,24.30
2022-09-02T06:06:41.021Z,24.50
2022-09-02T06:09:10.324Z,24.50
2022-09-02T06:11:40.628Z,24.10
2022-09-02T06:14:09.400Z,24.20
2022-09-02T06:16:39.006Z,24.70
2022-09-02T06:19:08.651Z,24.30
2022-09-02T06:21:38.426Z,24.90
2022-09-02T06:24:07.449Z,24.70
2022-09-02T06:26:35.747Z,25.80
2022-09-02T06:29:04.342Z,24.50
2022-09-02T06:31:34.570Z,24.80
2022-09-02T06:34:03.704Z,24.70
2022-09-02T06:36:33.943Z,24.60
2022-09-02T06:39:02.435Z,24.70
2022-09-02T06:41:33.613Z,25.20
2022-09-02T06:44:03.673Z,24.50
2022-09-02T06:46:37.982Z,24.60
2022-09-02T06:49:07.777Z,24.50
2022-09-02T06:51:38.157Z,25.10
2022-09-02T06:54:08.089Z,25.70
2022-09-02T06:56:38.302Z,25.90
2022-09-02T06:59:07.578Z,26.20
2022-09-02T07:01:36.968Z,25.40
2022-09-02T07:04:23.142Z,25.60
2022-09-02T07:06:55.137Z,25.70
2022-09-02T07:09:31.101Z,26.50
2022-09-02T07:12:04.351Z,25.70
2022-09-02T07:14:37.199Z,26.20
2022-09-02T07:17:05.722Z,25.60
2022-09-02T07:19:33.948Z,25.40
2022-09-02T07:22:04.229Z,25.60
2022-09-02T07:24:32.571Z,25.80
2022-09-02T07:27:00.791Z,25.10
2022-09-02T07:29:28.992Z,25.40
2022-09-02T07:31:57.190Z,25.10
2022-09-02T07:34:25.780Z,25.60
2022-09-02T07:36:53.971Z,25.50
2022-09-02T07:39:23.516Z,25.40
2022-09-02T07:41:52.769Z,25.50
2022-09-02T07:44:23.058Z,26.30
2022-09-02T07:46:51.322Z,26.10
2022-09-02T07:49:23.928Z,25.50
2022-09-02T07:51:52.939Z,25.50
2022-09-02T07:54:26.881Z,25.10
2022-09-02T07:56:56.356Z,25.60
2022-09-02T07:59:24.836Z,25.70
2022-09-02T08:01:54.497Z,26.50
2022-09-02T08:04:25.172Z,26.00
2022-09-02T08:06:54.267Z,25.90
2022-09-02T08:09:23.310Z,25.70
2022-09-02T08:11:54.121Z,26.00
2022-09-02T08:14:26.141Z,25.50
2022-09-02T08:16:55.463Z,27.00
2022-09-02T08:19:25.247Z,26.30
2022-09-02T08:21:53.873Z,26.40
2022-09-02T08:24:22.040Z,25.70
2022-09-02T08:26:50.209Z,26.50
2022-09-02T08:29:19.744Z,26.20
2022-09-02T08:31:49.701Z,26.50
2022-09-02T08:34:21.656Z,27.30
2022-09-02T08:36:56.448Z,27.10
2022-09-02T08:39:25.695Z,28.20
2022-09-02T08:42:03.389Z,28.30
2022-09-02T08:44:37.564Z,28.20
2022-09-02T08:47:10.608Z,29.00
2022-09-02T08:49:43.152Z,29.70
2022-09-02T08:52:17.847Z,30.70
2022-09-02T08:54:51.840Z,31.20
2022-09-02T08:57:20.129Z,31.40
2022-09-02T08:59:53.068Z,31.40
2022-09-02T09:02:27.847Z,31.30
2022-09-02T09:05:11.983Z,31.40
2022-09-02T09:07:56.196Z,31.40
2022-09-02T09:10:29.630Z,31.70
2022-09-02T09:13:09.232Z,31.70
2022-09-02T09:15:48.144Z,31.60
2022-09-02T09:18:20.368Z,31.50
2022-09-02T09:20:48.759Z,31.50
2022-09-02T09:23:35.486Z,31.80
2022-09-02T09:26:09.638Z,32.10
2022-09-02T09:28:42.484Z,32.50
2022-09-02T09:31:15.821Z,33.50
2022-09-02T09:33:57.137Z,34.60
2022-09-02T09:36:49.502Z,35.60
2022-09-02T09:39:25.780Z,36.60
2022-09-02T09:41:56.481Z,36.90
2022-09-02T09:44:44.681Z,37.40
2022-09-02T09:47:20.562Z,38.00
2022-09-02T09:49:50.161Z,38.50
2022-09-02T09:52:26.287Z,39.10
2022-09-02T09:55:12.506Z,39.60
2022-09-02T09:57:41.926Z,40.00
2022-09-02T10:00:22.679Z,40.30
2022-09-02T10:02:54.110Z,40.60
2022-09-02T10:05:32.476Z,41.00
2022-09-02T10:08:03.019Z,41.40
2022-09-02T10:10:33.499Z,41.60
2022-09-02T10:16:06.720Z,41.90
2022-09-02T10:18:41.550Z,42.00
2022-09-02T10:21:18.734Z,42.20
2022-09-02T10:23:53.606Z,42.60
2022-09-02T10:26:37.886Z,42.90
2022-09-02T10:29:24.375Z,43.10
2022-09-02T10:31:55.187Z,43.00
2022-09-02T10:34:34.850Z,42.60
2022-09-02T10:37:14.695Z,42.50
2022-09-02T10:40:04.037Z,42.70
2022-09-02T10:42:37.038Z,42.60
2022-09-02T10:45:15.498Z,42.70
2022-09-02T10:47:46.413Z,42.70
2022-09-02T10:50:23.484Z,42.70
2022-09-02T10:53:13.289Z,42.50
2022-09-02T10:55:50.817Z,42.70
2022-09-02T10:58:25.526Z,42.80
2022-09-02T11:00:57.735Z,42.70
2022-09-02T11:03:31.752Z,42.90
2022-09-02T11:06:06.756Z,42.90
2022-09-02T11:08:40.235Z,43.10
2022-09-02T11:11:14.881Z,42.00
2022-09-02T11:13:55.685Z,40.80
2022-09-02T11:16:29.080Z,39.70
2022-09-02T11:19:03.852Z,39.00
2022-09-02T11:21:43.792Z,38.50
2022-09-02T11:24:16.215Z,38.00
2022-09-02T11:26:55.104Z,37.60
2022-09-02T11:29:32.443Z,37.20
2022-09-02T11:32:09.278Z,37.00
2022-09-02T11:34:44.233Z,36.90
2022-09-02T11:37:25.609Z,36.90
2022-09-02T11:40:11.626Z,36.80
2022-09-02T11:43:03.918Z,36.80
2022-09-02T11:45:57.160Z,36.80
2022-09-02T11:49:08.515Z,36.80
2022-09-02T11:51:57.824Z,36.30
2022-09-02T11:54:37.279Z,35.70
2022-09-02T11:57:07.973Z,35.30
2022-09-02T12:00:08.523Z,35.30
2022-09-02T12:02:41.055Z,35.70
2022-09-02T12:05:51.557Z,36.20
2022-09-02T12:09:11.989Z,36.60
2022-09-02T12:12:02.215Z,37.00
2022-09-02T12:15:03.240Z,37.20
2022-09-02T12:17:50.973Z,37.40
2022-09-02T12:20:52.177Z,37.30
2022-09-02T12:23:53.913Z,37.50
2022-09-02T12:26:23.411Z,37.50
2022-09-02T12:28:55.030Z,37.30
2022-09-02T12:31:42.657Z,37.10
2022-09-02T12:34:48.187Z,36.90
2022-09-02T12:37:49.335Z,36.70
2022-09-02T12:40:22.336Z,36.50
2022-09-02T12:42:52.777Z,36.40
2022-09-02T12:45:29.445Z,36.50
2022-09-02T12:48:03.125Z,36.40
2022-09-02T12:50:36.393Z,36.60
2022-09-02T12:53:28.600Z,36.90
2022-09-02T12:56:01.400Z,37.20
2022-09-02T12:58:37.255Z,37.40
2022-09-02T13:01:15.707Z,37.20
2022-09-02T13:04:03.957Z,37.10
2022-09-02T13:06:54.297Z,37.30
2022-09-02T13:09:49.368Z,37.50
2022-09-02T13:12:59.115Z,37.10
2022-09-02T13:16:16.959Z,36.90
2022-09-02T13:19:20.122Z,36.70
2022-09-02T13:22:21.091Z,36.50
2022-09-02T13:25:41.475Z,36.20
2022-09-02T13:28:40.452Z,36.10
2022-09-02T13:31:22.030Z,36.40
2022-09-02T13:34:01.225Z,36.80
2022-09-02T13:36:38.731Z,37.20
2022-09-02T13:39:16.593Z,37.60
2022-09-02T13:41:45.157Z,37.80
2022-09-02T13:44:15.084Z,38.10
2022-09-02T13:46:48.683Z,38.30
2022-09-02T13:49:26.603Z,38.50
2022-09-02T13:51:57.281Z,38.70
2022-09-02T13:54:33.198Z,39.00
2022-09-02T13:57:06.127Z,39.30
2022-09-02T13:59:36.040Z,39.50
2022-09-02T14:02:21.165Z,39.70
2022-09-02T14:04:52.869Z,39.30
2022-09-02T14:07:28.142Z,39.00
2022-09-02T14:09:59.748Z,38.70
2022-09-02T14:12:31.137Z,38.90
2022-09-02T14:14:59.640Z,38.90
2022-09-02T14:17:28.106Z,38.80
2022-09-02T14:20:09.827Z,39.80
2022-09-02T14:22:40.141Z,40.60
2022-09-02T14:25:13.053Z,41.30
2022-09-02T14:27:41.427Z,41.80
2022-09-02T14:30:10.593Z,41.90
2022-09-02T14:32:39.949Z,42.30
2022-09-02T14:35:19.788Z,42.70
2022-09-02T14:37:55.827Z,43.10
2022-09-02T14:40:35.021Z,43.40
2022-09-02T14:43:03.833Z,43.60
2022-09-02T14:45:33.813Z,43.60
2022-09-02T14:48:10.795Z,42.00
2022-09-02T14:50:42.640Z,41.00
2022-09-02T14:53:20.606Z,41.00
2022-09-02T14:55:52.666Z,41.40
2022-09-02T14:58:24.792Z,41.80
2022-09-02T15:00:57.809Z,42.10
2022-09-02T15:03:27.104Z,42.20
2022-09-02T15:05:55.433Z,42.30
2022-09-02T15:08:26.006Z,42.30
2022-09-02T15:10:55.387Z,42.50
2022-09-02T15:13:30.350Z,42.90
2022-09-02T15:15:59.568Z,43.10
2022-09-02T15:18:27.924Z,43.40
2022-09-02T15:20:56.114Z,43.40
2022-09-02T15:23:25.692Z,43.40
2022-09-02T15:25:55.182Z,43.60
2022-09-02T15:28:25.909Z,43.60
2022-09-02T15:31:01.290Z,43.70
2022-09-02T15:33:32.382Z,43.80
2022-09-02T15:36:09.064Z,44.00
2022-09-02T15:38:41.106Z,44.00
2022-09-02T15:41:17.839Z,44.00
2022-09-02T15:43:49.107Z,44.00
2022-09-02T15:46:23.539Z,44.10
2022-09-02T15:48:52.411Z,44.10
2022-09-02T15:51:22.802Z,44.10
2022-09-02T15:53:57.400Z,44.00
2022-09-02T15:56:27.473Z,43.50
2022-09-02T15:58:58.648Z,43.10
2022-09-02T16:01:28.624Z,43.00
2022-09-02T16:03:57.043Z,42.90
2022-09-02T16:06:25.694Z,42.70
2022-09-02T16:08:54.069Z,42.50
2022-09-02T16:11:24.029Z,42.20
2022-09-02T16:13:52.274Z,42.00
2022-09-02T16:16:20.511Z,41.90
2022-09-02T16:18:51.762Z,41.80
2022-09-02T16:21:21.086Z,41.70
2022-09-02T16:23:50.381Z,41.40
2022-09-02T16:26:26.020Z,41.30
2022-09-02T16:28:56.076Z,41.30
2022-09-02T16:31:26.218Z,41.10
2022-09-02T16:33:55.818Z,40.80
2022-09-02T16:36:25.059Z,40.50
2022-09-02T16:38:57.733Z,40.30
2022-09-02T16:41:31.706Z,40.10
2022-09-02T16:44:01.277Z,39.90
2022-09-02T16:46:31.531Z,39.70
2022-09-02T16:49:00.033Z,39.60
2022-09-02T16:51:30.217Z,39.40
2022-09-02T16:53:59.856Z,39.20
2022-09-02T16:56:32.120Z,39.10
2022-09-02T16:59:06.977Z,38.80
2022-09-02T17:01:37.598Z,38.60
2022-09-02T17:04:08.486Z,38.50
2022-09-02T17:06:41.886Z,38.40
2022-09-02T17:09:10.971Z,38.20
2022-09-02T17:11:42.601Z,38.00
2022-09-02T17:14:12.475Z,37.80
2022-09-02T17:16:44.553Z,37.70
2022-09-02T17:19:17.022Z,37.50
2022-09-02T17:21:47.082Z,37.40
2022-09-02T17:24:16.334Z,37.20
2022-09-02T17:26:50.578Z,37.00
2022-09-02T17:29:47.628Z,36.80
2022-09-02T17:32:08.740Z,36.70
2022-09-02T17:34:37.800Z,36.60
2022-09-02T17:37:06.247Z,36.40
2022-09-02T17:39:34.950Z,36.30
2022-09-02T17:42:05.269Z,36.10
2022-09-02T17:44:38.394Z,36.10
2022-09-02T17:47:08.737Z,35.90
2022-09-02T17:49:38.692Z,35.80
2022-09-02T17:52:08.301Z,35.70
2022-09-02T17:54:37.293Z,35.60
2022-09-02T17:57:21.675Z,35.50
2022-09-02T18:00:09.977Z,35.40
2022-09-02T18:03:14.622Z,35.30
2022-09-02T18:06:02.769Z,35.20
2022-09-02T18:08:38.954Z,35.00
2022-09-02T18:11:07.920Z,34.90
2022-09-02T18:13:48.105Z,34.80
2022-09-02T18:16:29.893Z,34.70
2022-09-02T18:19:13.413Z,34.60
2022-09-02T18:21:59.469Z,34.50
2022-09-02T18:24:41.078Z,34.40
2022-09-02T18:27:17.190Z,34.40
2022-09-02T18:30:01.759Z,34.30
2022-09-02T18:32:55.264Z,34.20
2022-09-02T18:35:31.645Z,34.10
2022-09-02T18:38:09.332Z,34.00
2022-09-02T18:40:44.538Z,33.90
2022-09-02T18:43:23.400Z,33.90
2022-09-02T18:45:54.899Z,33.80
2022-09-02T18:48:27.729Z,33.70
2022-09-02T18:50:59.806Z,33.60
2022-09-02T18:53:32.444Z,33.60
2022-09-02T18:56:07.018Z,33.50
2022-09-02T18:58:40.888Z,33.50
2022-09-02T19:01:17.747Z,33.40
2022-09-02T19:03:46.023Z,33.30
2022-09-02T19:06:20.228Z,33.30
2022-09-02T19:08:48.506Z,33.20
2022-09-02T19:11:18.132Z,33.20
2022-09-02T19:13:48.622Z,33.20
2022-09-02T19:16:23.065Z,33.10
2022-09-02T19:18:51.445Z,33.00
2022-09-02T19:21:25.929Z,32.90
2022-09-02T19:23:54.130Z,32.70
2022-09-02T19:26:24.031Z,32.60
2022-09-02T19:28:55.506Z,32.30
2022-09-02T19:31:29.614Z,32.30
2022-09-02T19:34:01.494Z,32.10
2022-09-02T19:36:32.631Z,32.00
2022-09-02T19:39:01.111Z,31.90
2022-09-02T19:41:29.719Z,31.90
2022-09-02T19:44:00.123Z,31.90
2022-09-02T19:47:24.690Z,31.90
2022-09-02T19:49:17.988Z,31.90
2022-09-02T19:51:47.195Z,31.80
2022-09-02T19:54:17.890Z,31.70
2022-09-02T19:56:46.279Z,31.70
2022-09-02T19:59:14.685Z,31.70
2022-09-02T20:01:44.316Z,31.40
2022-09-02T20:04:12.685Z,32.30
2022-09-02T20:06:40.925Z,31.90
2022-09-02T20:09:09.097Z,31.80
2022-09-02T20:11:38.634Z,31.50
2022-09-02T20:14:09.282Z,31.40
2022-09-02T20:16:37.512Z,32.00
2022-09-02T20:19:07.116Z,31.70
2022-09-02T20:21:43.260Z,31.30
2022-09-02T20:24:13.588Z,31.50
2022-09-02T20:26:56.375Z,31.30
2022-09-02T20:29:50.857Z,31.40
2022-09-02T20:32:29.371Z,31.90
2022-09-02T20:35:08.603Z,31.40
2022-09-02T20:37:50.712Z,31.10
2022-09-02T20:40:33.536Z,31.60
2022-09-02T20:43:36.275Z,30.50
2022-09-02T20:46:17.838Z,32.00
2022-09-02T20:48:58.466Z,31.20
2022-09-02T20:51:32.448Z,31.00
2022-09-02T20:54:21.320Z,31.00
2022-09-02T20:56:57.288Z,31.10
2022-09-02T20:59:33.892Z,31.00
2022-09-02T21:02:03.230Z,30.60
2022-09-02T21:04:36.156Z,30.80
2022-09-02T21:07:12.186Z,31.50
2022-09-02T21:09:46.591Z,30.90
2022-09-02T21:12:32.373Z,29.90
2022-09-02T21:15:10.596Z,30.40
2022-09-02T21:17:48.425Z,30.10
2022-09-02T21:20:24.672Z,30.30
2022-09-02T21:22:59.642Z,30.00
2022-09-02T21:25:34.514Z,30.60
2022-09-02T21:28:08.970Z,30.20
2022-09-02T21:30:41.389Z,31.40
2022-09-02T21:33:13.328Z,31.00
2022-09-02T21:35:43.868Z,30.80
2022-09-02T21:38:18.189Z,30.40
2022-09-02T21:40:59.078Z,30.70
2022-09-02T21:43:41.526Z,30.40
2022-09-02T21:46:17.693Z,30.30
2022-09-02T21:48:58.690Z,30.20
2022-09-02T21:51:35.205Z,29.80
2022-09-02T21:54:42.318Z,29.20
2022-09-02T21:57:26.196Z,29.30
2022-09-02T22:00:01.420Z,29.10
2022-09-02T22:02:51.423Z,29.60
2022-09-02T22:06:01.807Z,30.40
2022-09-02T22:08:35.330Z,30.00
2022-09-02T22:11:11.862Z,29.70
2022-09-02T22:13:40.977Z,29.80
2022-09-02T22:16:20.886Z,29.80
2022-09-02T22:19:00.451Z,29.80
2022-09-02T22:21:31.813Z,29.80
2022-09-02T22:24:02.597Z,30.20
2022-09-02T22:26:40.430Z,29.80
2022-09-02T22:29:17.356Z,29.60
2022-09-02T22:31:47.361Z,29.10
2022-09-02T22:34:18.688Z,29.20
2022-09-02T22:36:56.458Z,29.40
2022-09-02T22:39:34.243Z,28.90
2022-09-02T22:42:13.251Z,29.20
2022-09-02T22:45:03.819Z,29.80
2022-09-02T22:47:51.644Z,29.20
2022-09-02T22:50:43.728Z,29.90
2022-09-02T22:53:12.958Z,29.60
2022-09-02T22:55:52.705Z,29.50
2022-09-02T22:58:51.384Z,29.40
2022-09-02T23:01:24.913Z,29.30
2022-09-02T23:04:06.920Z,29.40
2022-09-02T23:06:35.105Z,29.20
2022-09-02T23:09:10.400Z,29.10
2022-09-02T23:11:50.412Z,29.10
2022-09-02T23:14:29.004Z,29.40
2022-09-02T23:17:19.366Z,29.40
2022-09-02T23:20:08.899Z,29.90
2022-09-02T23:23:03.420Z,29.30
2022-09-02T23:25:50.626Z,28.40
2022-09-02T23:28:21.363Z,29.00
2022-09-02T23:31:02.971Z,29.20
2022-09-02T23:33:51.389Z,30.10
2022-09-02T23:36:26.000Z,28.70
2022-09-02T23:39:13.096Z,29.00
2022-09-02T23:41:48.028Z,28.90
2022-09-02T23:44:16.735Z,29.00
2022-09-02T23:47:03.681Z,29.30
2022-09-02T23:49:42.272Z,29.60
2022-09-02T23:52:23.159Z,28.90
2022-09-02T23:55:01.366Z,29.40
2022-09-02T23:57:50.681Z,28.40
